KBDR

Igor I Sikorsky Memorial Airport

Bridgeport, Connecticut, USA
METAR KBDR 200652Z AUTO 00000KT 1/4SM FG VV002 07/06 A3029 RMK AO2 SLP257 T00670061
Observed Flight Rules
Feb-20 @ 06:52 UTC (25 minutes ago) Instrument Flight Rules
Wind Visibility Clouds Conditions
Calm 1/4 miles
  • Vertical visibility at 200' AGL
  • Fog
Temperatures Readings
Current 7°C / 45°F
Dewpoint 6°C / 43°F
Humidity 93%
Altimeter 30.29" Hg
Pressure 1025.7 hPa
Elevation 7
METAR KBDR 200652Z AUTO 00000KT 1/4SM FG VV002 07/06 A3029 RMK AO2 SLP257 T00670061
Observed Flight Rules
Feb-20 @ 06:52 UTC
(25 minutes ago)
LIFR
Wind Visibility
Calm 1/4 miles
Clouds
  • Vertical visibility at 200' AGL
Conditions
  • Fog
Temperature Dewpoint
7°C / 45°F 6°C / 43°F
Humidity Altimeter Pressure
93% 30.29" Hg 1025.7 hPa